CHINCOTEAGUE BAY INLET NEAR CHIN VA US USGS current weather conditions

sailwx.info

Wind from 052 at 9 knots gusting 9

Last reported at 2020-Sep-18 10:00 UTC.
Time now 2020-Sep-18 10:55 UTC

Location: N 37°54' W 075°24'.
View on Google Maps.

See reports from other nearby stations

  
Tides and Currents Weather Stations Pressure Air Temp Water Temp Dewpoint Dewpoint Depression Visibility Wind Speed Wind Dir Waves Ship Positions
date/time (UTC)wind fromknots sea level pressurealtimeterstation pressurevisibilityair tempwater tempwave heightnotes
2020-Sep-18 10:00 052 9 gusting 9
2020-Sep-18 09:00 059 7 gusting 7
2020-Sep-18 08:00 066 8 gusting 8
2020-Sep-18 07:00 062 4 gusting 4
2020-Sep-18 06:00 067 4 gusting 3
2020-Sep-18 05:00 074 6 gusting 6
2020-Sep-18 04:00 049 5 gusting 5
2020-Sep-18 03:00 050 5 gusting 5
2020-Sep-18 02:00 051 5 gusting 5
2020-Sep-18 01:00 070 7 gusting 7
2020-Sep-18 00:00 075 8 gusting 8
2020-Sep-17 23:00 077 1 gusting 1
2020-Sep-17 22:00 077 4 gusting 4
2020-Sep-17 21:00 077 3 gusting 3
2020-Sep-17 20:00 103 0 gusting 0
2020-Sep-17 19:00 130 2 gusting 2
2020-Sep-17 18:00 139 0 gusting 0
2020-Sep-17 17:00 129 0 gusting 0
2020-Sep-17 16:00 132 0 gusting 0
2020-Sep-17 15:00 131 1 gusting 1
2020-Sep-17 14:00 127 1 gusting 1
2020-Sep-17 13:00 152
2020-Sep-17 12:00 154
2020-Sep-17 11:00 158
2020-Sep-17 10:00 156
2020-Sep-17 09:00 160 0 gusting 0
2020-Sep-17 08:00 173 2 gusting 2
2020-Sep-17 07:00 153
2020-Sep-17 06:00 171 0 gusting 0
2020-Sep-17 05:00 163
2020-Sep-17 04:00 144
2020-Sep-17 03:00 129 0 gusting 0
2020-Sep-17 02:00 134 0 gusting 0
2020-Sep-17 01:00 126 1 gusting 1
2020-Sep-17 00:00 114 0 gusting 0
2020-Sep-16 23:00 113
2020-Sep-16 22:00 125 0 gusting 0
2020-Sep-16 21:00 126 0 gusting 0
2020-Sep-16 20:00 115 1 gusting 1
2020-Sep-16 19:00 109 2 gusting 2
2020-Sep-16 18:00 135 0 gusting 0
2020-Sep-16 17:00 131 0 gusting 0
2020-Sep-16 16:00 125 1 gusting 1
2020-Sep-16 15:00 111 1 gusting 1
2020-Sep-16 14:00 045 5 gusting 5
2020-Sep-16 13:00 028 3 gusting 3
2020-Sep-16 12:00 029 3 gusting 3
2020-Sep-16 11:00 027 3 gusting 3